Time;durP1;ratioP1;P1;durP2;ratioP2;P2;SDS_P1;SDS_P2;PMS_P1;PMS_P2;Temp;Humidity;BMP_temperature;BMP_pressure;BME280_temperature;BME280_humidity;BME280_pressure;Samples;Min_cycle;Max_cycle;Signal;HPM_P1;HPM_P2
2023/02/14 00:04:43;;;;;;;;;;;18.60;48.80;;;;;;10080377;28;798;-73
2023/02/14 00:09:39;;;;;;;;;;;18.60;48.90;;;;;;10086129;28;1970;-73
2023/02/14 00:19:48;;;;;;;;;;;18.50;48.80;;;;;;10086763;29;659;-73
2023/02/14 00:24:43;;;;;;;;;;;18.50;48.80;;;;;;10085353;28;865;-73
2023/02/14 00:29:38;;;;;;;;;;;18.50;48.80;;;;;;10085671;28;1903;-73
2023/02/14 00:34:35;;;;;;;;;;;18.60;48.90;;;;;;10085622;28;953;-73
2023/02/14 00:39:30;;;;;;;;;;;18.60;48.90;;;;;;10085402;28;1599;-73
2023/02/14 00:44:26;;;;;;;;;;;18.60;48.90;;;;;;10085872;28;1177;-73
2023/02/14 00:49:21;;;;;;;;;;;18.50;48.70;;;;;;10085121;28;1969;-73
2023/02/14 00:54:16;;;;;;;;;;;18.50;48.80;;;;;;10085637;28;879;-73
2023/02/14 00:59:12;;;;;;;;;;;18.50;48.80;;;;;;10085500;28;873;-73
2023/02/14 01:04:07;;;;;;;;;;;18.50;48.80;;;;;;10084861;28;887;-73
2023/02/14 01:09:03;;;;;;;;;;;18.50;48.80;;;;;;10085142;28;1903;-73
2023/02/14 01:13:58;;;;;;;;;;;18.50;48.80;;;;;;10085015;28;764;-73
2023/02/14 01:18:53;;;;;;;;;;;18.50;48.80;;;;;;10083720;28;903;-73
2023/02/14 01:23:49;;;;;;;;;;;18.50;48.80;;;;;;10084773;28;872;-73
2023/02/14 01:28:44;;;;;;;;;;;18.50;48.80;;;;;;10083364;28;1903;-73
2023/02/14 01:33:40;;;;;;;;;;;18.40;48.80;;;;;;10083820;28;926;-73
2023/02/14 01:38:35;;;;;;;;;;;18.50;48.80;;;;;;10083755;28;954;-73
2023/02/14 01:43:30;;;;;;;;;;;18.40;48.80;;;;;;10084161;28;1088;-73
2023/02/14 01:48:26;;;;;;;;;;;18.40;48.80;;;;;;10083549;28;1976;-73
2023/02/14 01:53:21;;;;;;;;;;;18.40;48.90;;;;;;10083302;28;813;-73
2023/02/14 01:58:16;;;;;;;;;;;18.40;48.80;;;;;;10083118;28;896;-72
2023/02/14 02:03:12;;;;;;;;;;;18.40;48.80;;;;;;10082984;28;774;-73
2023/02/14 02:08:07;;;;;;;;;;;18.40;48.80;;;;;;10083320;28;1895;-73
2023/02/14 02:13:02;;;;;;;;;;;18.40;48.80;;;;;;10083480;28;899;-73
2023/02/14 02:17:58;;;;;;;;;;;18.40;48.90;;;;;;10081952;28;845;-73
2023/02/14 02:22:53;;;;;;;;;;;18.40;48.80;;;;;;10081812;28;892;-73
2023/02/14 02:27:49;;;;;;;;;;;18.40;48.80;;;;;;10082572;28;1898;-73
2023/02/14 02:32:44;;;;;;;;;;;18.40;48.90;;;;;;10082053;28;891;-73
2023/02/14 02:37:39;;;;;;;;;;;18.40;48.90;;;;;;10081857;28;980;-73
2023/02/14 02:42:35;;;;;;;;;;;18.30;48.80;;;;;;10082224;28;1629;-73
2023/02/14 02:47:30;;;;;;;;;;;18.30;48.80;;;;;;10081572;28;1907;-73
2023/02/14 02:57:39;;;;;;;;;;;18.40;48.80;;;;;;10080789;29;632;-73
2023/02/14 03:04:46;;;;;;;;;;;18.40;48.80;;;;;;10081204;28;808;-73
2023/02/14 03:07:50;;;;;;;;;;;18.30;48.70;;;;;;10080236;29;1965;-73
2023/02/14 03:12:46;;;;;;;;;;;18.40;48.80;;;;;;10081165;28;934;-73
2023/02/14 03:17:41;;;;;;;;;;;18.40;48.80;;;;;;10081369;28;846;-73
2023/02/14 03:22:36;;;;;;;;;;;18.40;48.80;;;;;;10080581;28;880;-73
2023/02/14 03:27:32;;;;;;;;;;;18.30;48.70;;;;;;10080965;28;1903;-73
2023/02/14 03:32:27;;;;;;;;;;;18.30;48.70;;;;;;10081482;28;916;-73
2023/02/14 03:37:22;;;;;;;;;;;18.30;48.70;;;;;;10080777;28;793;-73
2023/02/14 03:42:18;;;;;;;;;;;18.30;48.80;;;;;;10079461;28;1157;-73
2023/02/14 03:47:13;;;;;;;;;;;18.30;48.80;;;;;;10079876;28;1967;-72
2023/02/14 03:52:09;;;;;;;;;;;18.30;48.70;;;;;;10079808;28;766;-72
2023/02/14 03:57:04;;;;;;;;;;;18.30;48.70;;;;;;10080229;28;977;-73
2023/02/14 04:01:59;;;;;;;;;;;18.30;48.70;;;;;;10079496;28;849;-73
2023/02/14 04:06:55;;;;;;;;;;;18.30;49.30;;;;;;10079868;28;1902;-73
2023/02/14 04:11:50;;;;;;;;;;;18.30;48.70;;;;;;10079847;28;871;-73
2023/02/14 04:21:59;;;;;;;;;;;18.20;48.70;;;;;;10078688;29;612;-73
2023/02/14 04:27:10;;;;;;;;;;;18.20;48.70;;;;;;10078829;28;1903;-73
2023/02/14 04:32:05;;;;;;;;;;;18.20;48.80;;;;;;10078927;28;1203;-73
2023/02/14 04:37:01;;;;;;;;;;;18.20;48.70;;;;;;10078680;28;782;-72
2023/02/14 04:41:56;;;;;;;;;;;18.20;48.70;;;;;;10078918;28;1113;-73
2023/02/14 04:46:51;;;;;;;;;;;18.20;48.70;;;;;;10077807;28;1964;-73
2023/02/14 04:51:47;;;;;;;;;;;18.20;48.70;;;;;;10078674;28;900;-73
2023/02/14 04:56:42;;;;;;;;;;;18.20;48.70;;;;;;10085761;28;876;-72
2023/02/14 05:01:38;;;;;;;;;;;18.20;48.60;;;;;;10084934;28;798;-73
2023/02/14 05:06:33;;;;;;;;;;;18.20;48.60;;;;;;10084639;28;1894;-73
2023/02/14 05:11:28;;;;;;;;;;;18.20;48.50;;;;;;10084597;28;897;-73
2023/02/14 05:16:24;;;;;;;;;;;18.20;48.60;;;;;;10084398;28;796;-72
2023/02/14 05:21:19;;;;;;;;;;;18.20;48.60;;;;;;10084893;28;893;-72
2023/02/14 05:26:14;;;;;;;;;;;18.20;48.60;;;;;;10084760;28;793;-72
2023/02/14 05:31:10;;;;;;;;;;;18.20;48.50;;;;;;10083936;28;1960;-72
2023/02/14 05:36:05;;;;;;;;;;;18.10;48.50;;;;;;10083848;28;742;-72
2023/02/14 05:41:00;;;;;;;;;;;18.10;48.50;;;;;;10083381;28;1322;-72
2023/02/14 05:45:56;;;;;;;;;;;18.10;48.60;;;;;;10084430;28;979;-72
2023/02/14 05:50:51;;;;;;;;;;;18.10;48.50;;;;;;10083449;28;1985;-72
2023/02/14 05:55:47;;;;;;;;;;;18.10;48.50;;;;;;10083192;28;786;-72
2023/02/14 06:00:42;;;;;;;;;;;18.10;48.50;;;;;;10083131;28;961;-75
2023/02/14 06:05:37;;;;;;;;;;;18.10;48.60;;;;;;10082501;28;900;-74
2023/02/14 06:10:33;;;;;;;;;;;18.10;48.50;;;;;;10082832;28;1907;-74
2023/02/14 06:15:28;;;;;;;;;;;18.20;48.30;;;;;;10082652;28;810;-74
2023/02/14 06:20:24;;;;;;;;;;;18.30;48.20;;;;;;10083071;28;860;-72
2023/02/14 06:25:19;;;;;;;;;;;18.30;48.10;;;;;;10082954;28;799;-74
2023/02/14 06:30:14;;;;;;;;;;;18.20;48.10;;;;;;10082112;28;1903;-74
2023/02/14 06:35:10;;;;;;;;;;;18.20;48.00;;;;;;10082655;28;852;-73
2023/02/14 06:40:05;;;;;;;;;;;18.20;48.00;;;;;;10083051;28;872;-74
2023/02/14 06:45:01;;;;;;;;;;;18.20;48.20;;;;;;10083269;28;1220;-74
2023/02/14 06:49:58;;;;;;;;;;;18.30;48.20;;;;;;10082139;28;1918;-73
2023/02/14 06:54:54;;;;;;;;;;;18.30;48.20;;;;;;10080882;28;929;-74
2023/02/14 06:59:49;;;;;;;;;;;18.30;48.30;;;;;;10081307;28;786;-76
2023/02/14 07:04:44;;;;;;;;;;;18.20;48.20;;;;;;10081762;28;861;-76
2023/02/14 07:09:40;;;;;;;;;;;18.20;48.10;;;;;;10080947;28;1970;-76
2023/02/14 07:14:35;;;;;;;;;;;18.20;48.00;;;;;;10079963;28;979;-75
2023/02/14 07:19:30;;;;;;;;;;;18.20;48.00;;;;;;10080168;28;856;-77
2023/02/14 07:24:26;;;;;;;;;;;18.20;48.00;;;;;;10082358;28;1142;-77
2023/02/14 07:29:21;;;;;;;;;;;18.20;48.00;;;;;;10117875;28;2008;-77
2023/02/14 07:34:17;;;;;;;;;;;18.20;48.10;;;;;;10119364;28;941;-73
2023/02/14 07:39:12;;;;;;;;;;;18.20;48.40;;;;;;10118850;28;834;-77
2023/02/14 07:44:07;;;;;;;;;;;18.20;48.60;;;;;;10119410;28;1326;-78
2023/02/14 07:49:03;;;;;;;;;;;18.20;48.60;;;;;;10119125;28;1891;-78
2023/02/14 07:53:58;;;;;;;;;;;18.20;48.30;;;;;;10091652;28;1872;-78
2023/02/14 07:58:53;;;;;;;;;;;18.30;48.20;;;;;;10079545;28;801;-78
2023/02/14 08:03:50;;;;;;;;;;;18.30;48.30;;;;;;10079505;28;798;-78
2023/02/14 08:08:45;;;;;;;;;;;18.20;48.20;;;;;;10079889;29;1902;-78
2023/02/14 08:13:40;;;;;;;;;;;18.20;48.30;;;;;;10079029;28;807;-78
2023/02/14 08:18:36;;;;;;;;;;;18.30;48.20;;;;;;10079421;28;826;-77
2023/02/14 08:23:31;;;;;;;;;;;18.40;48.30;;;;;;10079221;28;882;-75
2023/02/14 08:28:27;;;;;;;;;;;18.40;48.30;;;;;;10082917;28;1958;-77
2023/02/14 08:33:22;;;;;;;;;;;18.40;48.40;;;;;;10085515;28;941;-78
2023/02/14 08:38:18;;;;;;;;;;;18.40;48.50;;;;;;10085753;28;903;-78
2023/02/14 08:43:13;;;;;;;;;;;18.30;48.50;;;;;;10084845;29;1239;-78
2023/02/14 08:48:09;;;;;;;;;;;18.30;48.70;;;;;;10085234;28;1969;-78
2023/02/14 08:53:04;;;;;;;;;;;18.30;48.80;;;;;;10085327;28;864;-78
2023/02/14 08:57:59;;;;;;;;;;;18.30;48.90;;;;;;10084461;28;829;-78
2023/02/14 09:02:55;;;;;;;;;;;18.30;48.90;;;;;;10085581;28;854;-78
2023/02/14 09:07:50;;;;;;;;;;;18.20;48.80;;;;;;10084638;28;1898;-78
2023/02/14 09:12:45;;;;;;;;;;;18.30;48.90;;;;;;10084977;28;972;-75
2023/02/14 09:17:41;;;;;;;;;;;18.30;49.10;;;;;;10084447;28;876;-75
2023/02/14 09:22:36;;;;;;;;;;;18.30;49.00;;;;;;10085580;28;940;-75
2023/02/14 09:27:32;;;;;;;;;;;18.40;48.90;;;;;;10083437;29;1960;-75
2023/02/14 09:32:28;;;;;;;;;;;18.40;48.90;;;;;;10084570;28;896;-75
2023/02/14 09:37:29;;;;;;;;;;;18.40;49.10;;;;;;10082761;28;770;-71
2023/02/14 09:42:24;;;;;;;;;;;18.40;49.50;;;;;;10083710;28;1133;-73
2023/02/14 09:47:20;;;;;;;;;;;18.30;49.00;;;;;;10084015;28;1902;-77
2023/02/14 09:52:15;;;;;;;;;;;18.20;49.30;;;;;;10083377;28;801;-80
2023/02/14 09:57:10;;;;;;;;;;;18.10;49.40;;;;;;10082641;28;904;-80
2023/02/14 10:02:06;;;;;;;;;;;18.20;49.50;;;;;;10083694;28;814;-75
2023/02/14 10:07:01;;;;;;;;;;;18.20;49.40;;;;;;10083516;28;1957;-76
2023/02/14 10:11:56;;;;;;;;;;;18.10;49.40;;;;;;10083355;28;904;-77
2023/02/14 10:16:52;;;;;;;;;;;18.00;49.50;;;;;;10083120;28;770;-77
2023/02/14 10:21:47;;;;;;;;;;;17.90;49.70;;;;;;10081937;28;919;-77
2023/02/14 10:26:43;;;;;;;;;;;17.90;49.80;;;;;;10082879;28;1902;-77
2023/02/14 10:31:38;;;;;;;;;;;17.80;49.80;;;;;;10082144;28;1072;-77
2023/02/14 10:36:34;;;;;;;;;;;17.80;49.80;;;;;;10082050;28;904;-77
2023/02/14 10:41:29;;;;;;;;;;;17.80;49.80;;;;;;10081698;28;1217;-77
2023/02/14 10:46:24;;;;;;;;;;;17.80;49.90;;;;;;10081795;28;857;-77
2023/02/14 10:51:20;;;;;;;;;;;17.80;49.70;;;;;;10081536;28;1972;-77
2023/02/14 10:56:17;;;;;;;;;;;17.80;49.70;;;;;;10081629;28;893;-77
2023/02/14 11:01:12;;;;;;;;;;;17.80;49.70;;;;;;10081254;28;854;-77
2023/02/14 11:06:08;;;;;;;;;;;17.80;49.60;;;;;;10081728;28;853;-76
2023/02/14 11:11:03;;;;;;;;;;;17.80;49.60;;;;;;10081549;28;1911;-76
2023/02/14 11:15:58;;;;;;;;;;;17.80;49.60;;;;;;10082402;28;908;-77
2023/02/14 11:20:54;;;;;;;;;;;17.80;49.60;;;;;;10081284;28;797;-77
2023/02/14 11:25:49;;;;;;;;;;;17.80;49.40;;;;;;10080599;28;806;-77
2023/02/14 11:30:44;;;;;;;;;;;17.80;49.40;;;;;;10079793;28;1956;-76
2023/02/14 11:35:40;;;;;;;;;;;17.80;49.30;;;;;;10080976;28;873;-77
2023/02/14 11:40:35;;;;;;;;;;;17.80;49.40;;;;;;10080479;28;983;-77
2023/02/14 11:45:31;;;;;;;;;;;17.80;49.30;;;;;;10080749;28;1058;-77
2023/02/14 11:50:27;;;;;;;;;;;17.80;49.40;;;;;;10080358;28;1978;-75
2023/02/14 11:55:22;;;;;;;;;;;17.80;49.40;;;;;;10080328;28;818;-75
2023/02/14 12:00:18;;;;;;;;;;;17.80;49.90;;;;;;10080077;28;890;-74
2023/02/14 12:05:13;;;;;;;;;;;17.80;49.40;;;;;;10079154;28;798;-75
2023/02/14 12:10:09;;;;;;;;;;;17.80;49.30;;;;;;10079657;28;1957;-77
2023/02/14 12:15:07;;;;;;;;;;;17.80;49.20;;;;;;10079894;28;885;-77
2023/02/14 12:20:02;;;;;;;;;;;17.80;49.10;;;;;;10078659;28;790;-75
2023/02/14 12:24:57;;;;;;;;;;;17.80;49.10;;;;;;10079183;28;919;-79
2023/02/14 12:29:53;;;;;;;;;;;17.90;49.10;;;;;;10079541;28;1970;-79
2023/02/14 12:34:48;;;;;;;;;;;17.90;49.10;;;;;;10078797;28;933;-79
2023/02/14 12:39:43;;;;;;;;;;;17.90;49.10;;;;;;10078742;28;770;-79
2023/02/14 12:44:39;;;;;;;;;;;17.90;49.00;;;;;;10078882;28;1117;-79
2023/02/14 12:49:34;;;;;;;;;;;18.00;49.00;;;;;;10078417;28;1915;-80
2023/02/14 12:54:30;;;;;;;;;;;18.00;48.90;;;;;;10078293;28;941;-82
2023/02/14 12:59:25;;;;;;;;;;;18.00;49.00;;;;;;10079503;28;868;-82
2023/02/14 13:04:20;;;;;;;;;;;18.00;48.90;;;;;;10078087;28;878;-83
2023/02/14 13:09:16;;;;;;;;;;;18.00;48.90;;;;;;10077924;28;2029;-82
2023/02/14 13:14:11;;;;;;;;;;;18.10;48.90;;;;;;10079573;28;769;-82
2023/02/14 13:19:07;;;;;;;;;;;18.10;48.80;;;;;;10084471;28;758;-80
2023/02/14 13:24:02;;;;;;;;;;;18.20;48.90;;;;;;10084867;28;936;-79
2023/02/14 13:28:57;;;;;;;;;;;18.20;48.90;;;;;;10084092;28;1962;-79
2023/02/14 13:33:53;;;;;;;;;;;18.20;48.80;;;;;;10083361;28;901;-79
2023/02/14 13:38:49;;;;;;;;;;;18.30;48.80;;;;;;10083323;28;974;-79
2023/02/14 13:43:44;;;;;;;;;;;18.30;48.80;;;;;;10083960;28;1164;-79
2023/02/14 13:48:39;;;;;;;;;;;18.40;48.70;;;;;;10083710;28;1911;-79
2023/02/14 13:53:35;;;;;;;;;;;18.40;48.70;;;;;;10084019;28;928;-79
2023/02/14 13:58:30;;;;;;;;;;;18.50;48.70;;;;;;10083176;28;890;-79
2023/02/14 14:03:25;;;;;;;;;;;18.50;48.60;;;;;;10083293;28;912;-79
2023/02/14 14:08:21;;;;;;;;;;;18.50;48.60;;;;;;10082542;28;1895;-80
2023/02/14 14:13:16;;;;;;;;;;;18.60;48.60;;;;;;10082816;28;900;-74
2023/02/14 14:18:11;;;;;;;;;;;18.70;48.70;;;;;;10082337;28;973;-78
2023/02/14 14:23:07;;;;;;;;;;;18.70;48.60;;;;;;10082275;28;899;-78
2023/02/14 14:28:02;;;;;;;;;;;18.80;48.60;;;;;;10081670;28;1960;-78
2023/02/14 14:32:58;;;;;;;;;;;18.80;48.60;;;;;;10082944;28;817;-76
2023/02/14 14:37:56;;;;;;;;;;;18.80;48.60;;;;;;10081275;28;924;-78
2023/02/14 14:42:51;;;;;;;;;;;18.80;48.60;;;;;;10081697;28;1182;-78
2023/02/14 14:47:46;;;;;;;;;;;18.90;48.60;;;;;;10081959;28;1938;-78
2023/02/14 14:52:42;;;;;;;;;;;18.90;48.50;;;;;;10081992;28;952;-78
2023/02/14 14:57:38;;;;;;;;;;;19.00;48.50;;;;;;10081079;28;964;-78
2023/02/14 15:02:33;;;;;;;;;;;19.00;48.40;;;;;;10081578;28;841;-78
2023/02/14 15:07:31;;;;;;;;;;;19.10;48.40;;;;;;10080836;28;1895;-78
2023/02/14 15:17:41;;;;;;;;;;;19.20;48.30;;;;;;10080278;29;608;-78
2023/02/14 15:22:36;;;;;;;;;;;19.20;48.30;;;;;;10080392;28;941;-76
2023/02/14 15:27:33;;;;;;;;;;;19.20;48.20;;;;;;10079572;28;1903;-76
2023/02/14 15:32:29;;;;;;;;;;;19.30;48.30;;;;;;10080216;28;803;-76
2023/02/14 15:37:24;;;;;;;;;;;19.30;48.20;;;;;;10079753;28;896;-77
2023/02/14 15:42:21;;;;;;;;;;;19.30;48.30;;;;;;10080301;28;1147;-76
2023/02/14 15:47:16;;;;;;;;;;;19.30;48.30;;;;;;10079887;28;1911;-79
2023/02/14 15:52:12;;;;;;;;;;;19.20;48.40;;;;;;10080586;28;892;-77
2023/02/14 15:57:08;;;;;;;;;;;19.00;48.70;;;;;;10080840;28;833;-77
2023/02/14 16:02:04;;;;;;;;;;;18.80;48.70;;;;;;10079381;28;896;-77
2023/02/14 16:06:59;;;;;;;;;;;18.80;48.90;;;;;;10080081;28;1906;-77
2023/02/14 16:11:55;;;;;;;;;;;18.70;48.90;;;;;;10079412;28;868;-77
2023/02/14 16:16:50;;;;;;;;;;;18.70;49.00;;;;;;10079892;28;856;-77
2023/02/14 16:21:46;;;;;;;;;;;18.60;48.90;;;;;;10079860;28;874;-77
2023/02/14 16:26:41;;;;;;;;;;;18.60;49.60;;;;;;10079104;28;1960;-77
2023/02/14 16:31:36;;;;;;;;;;;18.60;49.00;;;;;;10078928;28;963;-77
2023/02/14 16:36:32;;;;;;;;;;;18.50;49.00;;;;;;10079142;28;1062;-77
2023/02/14 16:41:27;;;;;;;;;;;18.50;49.00;;;;;;10078634;28;1252;-77
2023/02/14 16:46:22;;;;;;;;;;;18.50;49.00;;;;;;10079304;28;894;-77
2023/02/14 16:51:18;;;;;;;;;;;18.40;48.90;;;;;;10085598;28;1911;-77
2023/02/14 16:56:13;;;;;;;;;;;18.40;49.00;;;;;;10084639;28;888;-79
2023/02/14 17:01:09;;;;;;;;;;;18.40;49.00;;;;;;10084988;28;875;-77
2023/02/14 17:06:05;;;;;;;;;;;18.40;49.00;;;;;;10084942;28;874;-78
2023/02/14 17:11:00;;;;;;;;;;;18.30;49.00;;;;;;10084634;28;1956;-78
2023/02/14 17:15:56;;;;;;;;;;;18.40;49.00;;;;;;10085127;28;897;-77
2023/02/14 17:20:51;;;;;;;;;;;18.30;48.90;;;;;;10084422;28;809;-77
2023/02/14 17:25:46;;;;;;;;;;;18.30;48.90;;;;;;10085254;28;791;-77
2023/02/14 17:30:42;;;;;;;;;;;18.30;48.90;;;;;;10084080;28;1966;-77
2023/02/14 17:35:37;;;;;;;;;;;18.30;48.90;;;;;;10084006;28;817;-77
2023/02/14 17:40:33;;;;;;;;;;;18.30;48.90;;;;;;10083753;28;1164;-77
2023/02/14 17:45:28;;;;;;;;;;;18.30;48.90;;;;;;10084072;28;980;-79
2023/02/14 17:50:23;;;;;;;;;;;18.30;48.80;;;;;;10083468;28;1911;-78
2023/02/14 17:55:19;;;;;;;;;;;18.30;48.80;;;;;;10083479;28;907;-77
2023/02/14 18:00:15;;;;;;;;;;;18.20;48.80;;;;;;10083365;28;770;-77
2023/02/14 18:05:11;;;;;;;;;;;18.20;48.80;;;;;;10083111;28;804;-77
2023/02/14 18:10:06;;;;;;;;;;;18.20;48.80;;;;;;10083464;28;1903;-78
2023/02/14 18:15:01;;;;;;;;;;;18.20;48.80;;;;;;10083427;28;857;-77
2023/02/14 18:19:57;;;;;;;;;;;18.20;48.80;;;;;;10082708;28;880;-78
2023/02/14 18:24:57;;;;;;;;;;;18.20;48.70;;;;;;10083131;28;851;-77
2023/02/14 18:29:52;;;;;;;;;;;18.20;48.70;;;;;;10082287;28;1966;-77
2023/02/14 18:34:49;;;;;;;;;;;18.20;48.70;;;;;;10082133;28;922;-77
2023/02/14 18:39:45;;;;;;;;;;;18.20;48.70;;;;;;10082007;28;965;-77
2023/02/14 18:44:40;;;;;;;;;;;18.20;48.70;;;;;;10082290;28;1202;-77
2023/02/14 18:49:36;;;;;;;;;;;18.20;48.70;;;;;;10082583;28;1910;-77
2023/02/14 18:54:31;;;;;;;;;;;18.20;48.50;;;;;;10082196;28;814;-77
2023/02/14 18:59:27;;;;;;;;;;;18.20;48.60;;;;;;10082084;28;822;-77
2023/02/14 19:04:22;;;;;;;;;;;18.20;48.50;;;;;;10081984;28;904;-77
2023/02/14 19:09:18;;;;;;;;;;;18.20;48.50;;;;;;10081067;29;1968;-78
2023/02/14 19:14:13;;;;;;;;;;;18.20;48.50;;;;;;10079852;28;810;-77
2023/02/14 19:19:08;;;;;;;;;;;18.20;48.50;;;;;;10081970;28;787;-78
2023/02/14 19:24:05;;;;;;;;;;;18.20;48.40;;;;;;10081344;28;923;-77
2023/02/14 19:29:01;;;;;;;;;;;18.20;48.40;;;;;;10080554;28;1968;-77
2023/02/14 19:33:56;;;;;;;;;;;18.20;48.50;;;;;;10081606;28;963;-78
2023/02/14 19:38:53;;;;;;;;;;;18.20;48.40;;;;;;10079760;29;874;-78
2023/02/14 19:43:49;;;;;;;;;;;18.20;48.40;;;;;;10081043;28;1085;-78
2023/02/14 19:48:45;;;;;;;;;;;18.20;48.40;;;;;;10080637;28;1984;-78
2023/02/14 19:53:41;;;;;;;;;;;18.20;48.40;;;;;;10079960;28;895;-78
2023/02/14 19:58:36;;;;;;;;;;;18.20;48.40;;;;;;10080506;29;853;-78
2023/02/14 20:03:32;;;;;;;;;;;18.20;48.40;;;;;;10079101;28;1564;-78
2023/02/14 20:08:27;;;;;;;;;;;18.20;48.40;;;;;;10079514;28;1915;-78
2023/02/14 20:13:22;;;;;;;;;;;18.20;48.40;;;;;;10079467;29;779;-79
2023/02/14 20:18:18;;;;;;;;;;;18.20;48.40;;;;;;10079944;28;880;-78
2023/02/14 20:23:13;;;;;;;;;;;18.20;48.30;;;;;;10082272;28;833;-78
2023/02/14 20:28:08;;;;;;;;;;;18.20;48.20;;;;;;10086055;28;1903;-71
2023/02/14 20:33:04;;;;;;;;;;;18.30;48.10;;;;;;10085959;28;778;-78
2023/02/14 20:37:59;;;;;;;;;;;18.30;48.50;;;;;;10085846;28;881;-79
2023/02/14 20:42:55;;;;;;;;;;;18.30;48.40;;;;;;10086325;28;1287;-79
2023/02/14 20:47:50;;;;;;;;;;;18.30;48.30;;;;;;10086142;28;1910;-74
2023/02/14 20:52:45;;;;;;;;;;;18.30;48.30;;;;;;10085360;28;816;-74
2023/02/14 20:57:41;;;;;;;;;;;18.30;48.30;;;;;;10085788;28;840;-74
2023/02/14 21:02:36;;;;;;;;;;;18.20;48.20;;;;;;10085580;28;898;-74
2023/02/14 21:07:31;;;;;;;;;;;18.30;48.30;;;;;;10084819;28;1911;-75
2023/02/14 21:12:27;;;;;;;;;;;18.20;48.20;;;;;;10084629;28;976;-75
2023/02/14 21:17:22;;;;;;;;;;;18.30;48.30;;;;;;10085394;28;821;-75
2023/02/14 21:22:17;;;;;;;;;;;18.30;48.30;;;;;;10085061;28;790;-76
2023/02/14 21:27:13;;;;;;;;;;;18.20;48.30;;;;;;10084781;28;1903;-75
2023/02/14 21:32:08;;;;;;;;;;;18.20;48.30;;;;;;10084156;28;872;-74
2023/02/14 21:37:03;;;;;;;;;;;18.30;48.30;;;;;;10083055;28;801;-74
2023/02/14 21:41:59;;;;;;;;;;;18.30;48.30;;;;;;10083903;28;1153;-74
2023/02/14 21:46:55;;;;;;;;;;;18.20;48.20;;;;;;10083633;28;1919;-74
2023/02/14 21:51:50;;;;;;;;;;;18.30;48.20;;;;;;10083595;28;809;-75
2023/02/14 21:56:46;;;;;;;;;;;18.20;48.20;;;;;;10083460;28;873;-74
2023/02/14 22:01:41;;;;;;;;;;;18.30;48.20;;;;;;10083200;28;1007;-75
2023/02/14 22:06:37;;;;;;;;;;;18.20;48.20;;;;;;10083055;28;875;-75
2023/02/14 22:11:32;;;;;;;;;;;18.30;48.20;;;;;;10083407;28;1903;-74
2023/02/14 22:16:28;;;;;;;;;;;18.30;48.20;;;;;;10082255;29;904;-74
2023/02/14 22:21:23;;;;;;;;;;;18.30;48.40;;;;;;10083255;28;877;-74
2023/02/14 22:26:19;;;;;;;;;;;18.20;48.20;;;;;;10082604;28;963;-74
2023/02/14 22:31:14;;;;;;;;;;;18.20;48.20;;;;;;10082271;28;1907;-76
2023/02/14 22:36:09;;;;;;;;;;;18.30;48.10;;;;;;10082728;28;825;-74
2023/02/14 22:41:05;;;;;;;;;;;18.30;48.10;;;;;;10082075;28;1277;-74
2023/02/14 22:46:00;;;;;;;;;;;18.20;48.10;;;;;;10081736;28;806;-74
2023/02/14 22:50:55;;;;;;;;;;;18.20;48.10;;;;;;10081718;28;1988;-75
2023/02/14 22:55:51;;;;;;;;;;;18.20;48.20;;;;;;10081617;28;809;-74
2023/02/14 23:00:46;;;;;;;;;;;18.20;48.10;;;;;;10081388;28;961;-74
2023/02/14 23:05:42;;;;;;;;;;;18.20;48.20;;;;;;10081336;28;786;-74
2023/02/14 23:10:38;;;;;;;;;;;18.20;48.20;;;;;;10081055;28;1986;-74
2023/02/14 23:26:02;;;;;;;;;;;18.20;48.20;;;;;;10080233;29;687;-74
2023/02/14 23:30:57;;;;;;;;;;;18.20;48.20;;;;;;10081146;28;1907;-74
2023/02/14 23:35:52;;;;;;;;;;;18.20;48.10;;;;;;10080499;28;852;-74
2023/02/14 23:41:48;;;;;;;;;;;18.20;48.10;;;;;;10080651;28;1311;-74
2023/02/14 23:46:12;;;;;;;;;;;18.10;48.00;;;;;;10078918;28;1812;-74
2023/02/14 23:51:08;;;;;;;;;;;18.20;48.50;;;;;;10080862;28;1955;-74
2023/02/14 23:56:03;;;;;;;;;;;18.20;48.20;;;;;;10081036;28;828;-74
